sensor_id;sensor_type;location;lat;lon;timestamp;temperature;humidity
42743;DHT22;28397;44.552;-0.848;2024-01-07T00:00:02;8.40;99.90
42743;DHT22;28397;44.552;-0.848;2024-01-07T00:02:28;8.40;99.90
42743;DHT22;28397;44.552;-0.848;2024-01-07T00:04:56;8.50;99.90
42743;DHT22;28397;44.552;-0.848;2024-01-07T00:07:22;8.50;99.90
42743;DHT22;28397;44.552;-0.848;2024-01-07T00:09:47;8.60;99.90
42743;DHT22;28397;44.552;-0.848;2024-01-07T00:12:13;8.60;99.90
42743;DHT22;28397;44.552;-0.848;2024-01-07T00:14:39;8.40;99.90
42743;DHT22;28397;44.552;-0.848;2024-01-07T00:17:04;8.20;99.90
42743;DHT22;28397;44.552;-0.848;2024-01-07T00:19:30;8.10;99.90
42743;DHT22;28397;44.552;-0.848;2024-01-07T00:21:57;8.00;99.90
42743;DHT22;28397;44.552;-0.848;2024-01-07T00:24:23;7.90;99.90
42743;DHT22;28397;44.552;-0.848;2024-01-07T00:26:51;7.90;99.90
42743;DHT22;28397;44.552;-0.848;2024-01-07T00:29:17;7.80;99.90
42743;DHT22;28397;44.552;-0.848;2024-01-07T00:31:42;7.80;99.90
42743;DHT22;28397;44.552;-0.848;2024-01-07T00:34:08;7.70;99.90
42743;DHT22;28397;44.552;-0.848;2024-01-07T00:36:34;7.70;99.90
42743;DHT22;28397;44.552;-0.848;2024-01-07T00:38:59;7.70;99.90
42743;DHT22;28397;44.552;-0.848;2024-01-07T00:41:25;7.70;99.90
42743;DHT22;28397;44.552;-0.848;2024-01-07T00:43:51;7.70;99.90
42743;DHT22;28397;44.552;-0.848;2024-01-07T00:46:16;7.70;99.90
42743;DHT22;28397;44.552;-0.848;2024-01-07T00:48:42;7.70;99.90
42743;DHT22;28397;44.552;-0.848;2024-01-07T00:51:07;7.60;99.90
42743;DHT22;28397;44.552;-0.848;2024-01-07T00:53:33;7.60;99.90
42743;DHT22;28397;44.552;-0.848;2024-01-07T00:55:59;7.60;99.90
42743;DHT22;28397;44.552;-0.848;2024-01-07T00:58:24;7.60;99.90
42743;DHT22;28397;44.552;-0.848;2024-01-07T01:00:50;7.60;99.90
42743;DHT22;28397;44.552;-0.848;2024-01-07T01:03:19;7.50;99.90
42743;DHT22;28397;44.552;-0.848;2024-01-07T01:05:45;7.50;99.90
42743;DHT22;28397;44.552;-0.848;2024-01-07T01:08:10;7.50;99.90
42743;DHT22;28397;44.552;-0.848;2024-01-07T01:10:36;7.50;99.90
42743;DHT22;28397;44.552;-0.848;2024-01-07T01:13:02;7.50;99.90
42743;DHT22;28397;44.552;-0.848;2024-01-07T01:15:28;7.40;99.90
42743;DHT22;28397;44.552;-0.848;2024-01-07T01:17:53;7.50;99.90
42743;DHT22;28397;44.552;-0.848;2024-01-07T01:20:19;7.40;99.90
42743;DHT22;28397;44.552;-0.848;2024-01-07T01:22:44;7.40;99.90
42743;DHT22;28397;44.552;-0.848;2024-01-07T01:25:10;7.40;99.90
42743;DHT22;28397;44.552;-0.848;2024-01-07T01:27:36;7.40;99.90
42743;DHT22;28397;44.552;-0.848;2024-01-07T01:30:02;7.40;99.90
42743;DHT22;28397;44.552;-0.848;2024-01-07T01:32:28;7.40;99.90
42743;DHT22;28397;44.552;-0.848;2024-01-07T01:34:53;7.30;99.90
42743;DHT22;28397;44.552;-0.848;2024-01-07T01:37:19;7.30;99.90
42743;DHT22;28397;44.552;-0.848;2024-01-07T01:39:45;7.30;99.90
42743;DHT22;28397;44.552;-0.848;2024-01-07T01:42:10;7.30;99.90
42743;DHT22;28397;44.552;-0.848;2024-01-07T01:44:36;7.30;99.90
42743;DHT22;28397;44.552;-0.848;2024-01-07T01:47:02;7.30;99.90
42743;DHT22;28397;44.552;-0.848;2024-01-07T01:49:28;7.30;99.90
42743;DHT22;28397;44.552;-0.848;2024-01-07T01:51:53;7.30;99.90
42743;DHT22;28397;44.552;-0.848;2024-01-07T01:54:20;7.70;99.90
42743;DHT22;28397;44.552;-0.848;2024-01-07T01:56:47;7.80;99.90
42743;DHT22;28397;44.552;-0.848;2024-01-07T01:59:14;7.90;99.90
42743;DHT22;28397;44.552;-0.848;2024-01-07T02:01:40;8.10;99.90
42743;DHT22;28397;44.552;-0.848;2024-01-07T02:04:06;8.20;99.90
42743;DHT22;28397;44.552;-0.848;2024-01-07T02:06:32;8.20;99.90
42743;DHT22;28397;44.552;-0.848;2024-01-07T02:08:58;8.20;99.90
42743;DHT22;28397;44.552;-0.848;2024-01-07T02:11:24;8.10;99.90
42743;DHT22;28397;44.552;-0.848;2024-01-07T02:13:49;8.00;99.90
42743;DHT22;28397;44.552;-0.848;2024-01-07T02:16:15;7.80;99.90
42743;DHT22;28397;44.552;-0.848;2024-01-07T02:18:43;7.70;99.90
42743;DHT22;28397;44.552;-0.848;2024-01-07T02:21:10;7.60;99.90
42743;DHT22;28397;44.552;-0.848;2024-01-07T02:23:36;7.60;99.90
42743;DHT22;28397;44.552;-0.848;2024-01-07T02:26:02;7.40;99.90
42743;DHT22;28397;44.552;-0.848;2024-01-07T02:28:29;7.40;99.90
42743;DHT22;28397;44.552;-0.848;2024-01-07T02:30:55;7.40;99.90
42743;DHT22;28397;44.552;-0.848;2024-01-07T02:33:20;7.30;99.90
42743;DHT22;28397;44.552;-0.848;2024-01-07T02:35:46;7.20;99.90
42743;DHT22;28397;44.552;-0.848;2024-01-07T02:38:12;7.20;99.90
42743;DHT22;28397;44.552;-0.848;2024-01-07T02:40:37;7.20;99.90
42743;DHT22;28397;44.552;-0.848;2024-01-07T02:43:03;7.20;99.90
42743;DHT22;28397;44.552;-0.848;2024-01-07T02:45:29;7.10;99.90
42743;DHT22;28397;44.552;-0.848;2024-01-07T02:47:54;7.10;99.90
42743;DHT22;28397;44.552;-0.848;2024-01-07T02:50:20;7.10;99.90
42743;DHT22;28397;44.552;-0.848;2024-01-07T02:52:46;7.10;99.90
42743;DHT22;28397;44.552;-0.848;2024-01-07T02:55:11;7.10;99.90
42743;DHT22;28397;44.552;-0.848;2024-01-07T02:57:37;7.00;99.90
42743;DHT22;28397;44.552;-0.848;2024-01-07T03:00:03;7.00;99.90
42743;DHT22;28397;44.552;-0.848;2024-01-07T03:02:30;7.00;99.90
42743;DHT22;28397;44.552;-0.848;2024-01-07T03:04:56;7.00;99.90
42743;DHT22;28397;44.552;-0.848;2024-01-07T03:07:21;7.00;99.90
42743;DHT22;28397;44.552;-0.848;2024-01-07T03:09:48;6.90;99.90
42743;DHT22;28397;44.552;-0.848;2024-01-07T03:12:15;6.90;99.90
42743;DHT22;28397;44.552;-0.848;2024-01-07T03:14:41;6.90;99.90
42743;DHT22;28397;44.552;-0.848;2024-01-07T03:17:07;6.90;99.90
42743;DHT22;28397;44.552;-0.848;2024-01-07T03:19:32;6.90;99.90
42743;DHT22;28397;44.552;-0.848;2024-01-07T03:21:58;6.80;99.90
42743;DHT22;28397;44.552;-0.848;2024-01-07T03:24:24;6.90;99.90
42743;DHT22;28397;44.552;-0.848;2024-01-07T03:26:50;6.90;99.90
42743;DHT22;28397;44.552;-0.848;2024-01-07T03:29:15;6.90;99.90
42743;DHT22;28397;44.552;-0.848;2024-01-07T03:31:41;6.80;99.90
42743;DHT22;28397;44.552;-0.848;2024-01-07T03:34:07;6.90;99.90
42743;DHT22;28397;44.552;-0.848;2024-01-07T03:36:32;6.90;99.90
42743;DHT22;28397;44.552;-0.848;2024-01-07T03:38:58;6.80;99.90
42743;DHT22;28397;44.552;-0.848;2024-01-07T03:41:23;6.80;99.90
42743;DHT22;28397;44.552;-0.848;2024-01-07T03:43:49;6.80;99.90
42743;DHT22;28397;44.552;-0.848;2024-01-07T03:46:16;6.90;99.90
42743;DHT22;28397;44.552;-0.848;2024-01-07T03:48:42;6.80;99.90
42743;DHT22;28397;44.552;-0.848;2024-01-07T03:51:08;6.80;99.90
42743;DHT22;28397;44.552;-0.848;2024-01-07T03:53:34;6.90;99.90
42743;DHT22;28397;44.552;-0.848;2024-01-07T03:55:59;7.30;99.90
42743;DHT22;28397;44.552;-0.848;2024-01-07T03:58:25;7.40;99.90
42743;DHT22;28397;44.552;-0.848;2024-01-07T04:00:51;7.60;99.90
42743;DHT22;28397;44.552;-0.848;2024-01-07T04:03:16;7.70;99.90
42743;DHT22;28397;44.552;-0.848;2024-01-07T04:05:42;7.70;99.90
42743;DHT22;28397;44.552;-0.848;2024-01-07T04:08:11;7.60;99.90
42743;DHT22;28397;44.552;-0.848;2024-01-07T04:10:37;7.60;99.90
42743;DHT22;28397;44.552;-0.848;2024-01-07T04:13:04;7.70;99.90
42743;DHT22;28397;44.552;-0.848;2024-01-07T04:15:29;7.50;99.90
42743;DHT22;28397;44.552;-0.848;2024-01-07T04:17:55;7.30;99.90
42743;DHT22;28397;44.552;-0.848;2024-01-07T04:20:21;7.20;99.90
42743;DHT22;28397;44.552;-0.848;2024-01-07T04:22:47;7.10;99.90
42743;DHT22;28397;44.552;-0.848;2024-01-07T04:25:13;7.10;99.90
42743;DHT22;28397;44.552;-0.848;2024-01-07T04:27:38;7.00;99.90
42743;DHT22;28397;44.552;-0.848;2024-01-07T04:30:05;7.00;99.90
42743;DHT22;28397;44.552;-0.848;2024-01-07T04:32:31;6.90;99.90
42743;DHT22;28397;44.552;-0.848;2024-01-07T04:34:57;6.90;99.90
42743;DHT22;28397;44.552;-0.848;2024-01-07T04:37:25;6.90;99.90
42743;DHT22;28397;44.552;-0.848;2024-01-07T04:39:51;6.80;99.90
42743;DHT22;28397;44.552;-0.848;2024-01-07T04:42:17;6.80;99.90
42743;DHT22;28397;44.552;-0.848;2024-01-07T04:44:43;6.70;99.90
42743;DHT22;28397;44.552;-0.848;2024-01-07T04:47:29;6.70;99.90
42743;DHT22;28397;44.552;-0.848;2024-01-07T04:49:55;6.70;99.90
42743;DHT22;28397;44.552;-0.848;2024-01-07T04:52:25;6.70;99.90
42743;DHT22;28397;44.552;-0.848;2024-01-07T04:54:51;6.60;99.90
42743;DHT22;28397;44.552;-0.848;2024-01-07T04:57:17;6.60;99.90
42743;DHT22;28397;44.552;-0.848;2024-01-07T04:59:43;6.60;99.90
42743;DHT22;28397;44.552;-0.848;2024-01-07T05:02:10;6.50;99.90
42743;DHT22;28397;44.552;-0.848;2024-01-07T05:04:36;6.50;99.90
42743;DHT22;28397;44.552;-0.848;2024-01-07T05:07:01;6.50;99.90
42743;DHT22;28397;44.552;-0.848;2024-01-07T05:09:27;6.50;99.90
42743;DHT22;28397;44.552;-0.848;2024-01-07T05:11:53;6.40;99.90
42743;DHT22;28397;44.552;-0.848;2024-01-07T05:14:18;6.40;99.90
42743;DHT22;28397;44.552;-0.848;2024-01-07T05:16:44;6.50;99.90
42743;DHT22;28397;44.552;-0.848;2024-01-07T05:19:10;6.40;99.90
42743;DHT22;28397;44.552;-0.848;2024-01-07T05:21:35;6.40;99.90
42743;DHT22;28397;44.552;-0.848;2024-01-07T05:24:01;6.40;99.90
42743;DHT22;28397;44.552;-0.848;2024-01-07T05:26:27;6.40;99.90
42743;DHT22;28397;44.552;-0.848;2024-01-07T05:28:52;6.40;99.90
42743;DHT22;28397;44.552;-0.848;2024-01-07T05:31:18;6.40;99.90
42743;DHT22;28397;44.552;-0.848;2024-01-07T05:33:45;6.30;99.90
42743;DHT22;28397;44.552;-0.848;2024-01-07T05:36:11;6.40;99.90
42743;DHT22;28397;44.552;-0.848;2024-01-07T05:38:37;6.40;99.90
42743;DHT22;28397;44.552;-0.848;2024-01-07T05:41:03;6.30;99.90
42743;DHT22;28397;44.552;-0.848;2024-01-07T05:43:29;6.30;99.90
42743;DHT22;28397;44.552;-0.848;2024-01-07T05:45:54;6.30;99.90
42743;DHT22;28397;44.552;-0.848;2024-01-07T05:48:23;6.20;99.90
42743;DHT22;28397;44.552;-0.848;2024-01-07T05:50:49;6.20;99.90
42743;DHT22;28397;44.552;-0.848;2024-01-07T05:53:16;6.20;99.90
42743;DHT22;28397;44.552;-0.848;2024-01-07T05:55:41;6.20;99.90
42743;DHT22;28397;44.552;-0.848;2024-01-07T05:58:07;6.30;99.90
42743;DHT22;28397;44.552;-0.848;2024-01-07T06:00:32;6.50;99.90
42743;DHT22;28397;44.552;-0.848;2024-01-07T06:02:58;6.70;99.90
42743;DHT22;28397;44.552;-0.848;2024-01-07T06:05:24;6.80;99.90
42743;DHT22;28397;44.552;-0.848;2024-01-07T06:07:49;6.80;99.90
42743;DHT22;28397;44.552;-0.848;2024-01-07T06:10:15;6.90;99.90
42743;DHT22;28397;44.552;-0.848;2024-01-07T06:12:41;6.90;99.90
42743;DHT22;28397;44.552;-0.848;2024-01-07T06:15:06;6.90;99.90
42743;DHT22;28397;44.552;-0.848;2024-01-07T06:17:32;6.90;99.90
42743;DHT22;28397;44.552;-0.848;2024-01-07T06:19:58;6.70;99.90
42743;DHT22;28397;44.552;-0.848;2024-01-07T06:22:24;6.60;99.90
42743;DHT22;28397;44.552;-0.848;2024-01-07T06:24:49;6.50;99.90
42743;DHT22;28397;44.552;-0.848;2024-01-07T06:27:16;6.40;99.90
42743;DHT22;28397;44.552;-0.848;2024-01-07T06:29:41;6.40;99.90
42743;DHT22;28397;44.552;-0.848;2024-01-07T06:32:07;6.30;99.90
42743;DHT22;28397;44.552;-0.848;2024-01-07T06:34:33;6.30;99.90
42743;DHT22;28397;44.552;-0.848;2024-01-07T06:36:59;6.20;99.90
42743;DHT22;28397;44.552;-0.848;2024-01-07T06:39:25;6.10;99.90
42743;DHT22;28397;44.552;-0.848;2024-01-07T06:41:52;6.20;99.90
42743;DHT22;28397;44.552;-0.848;2024-01-07T06:44:18;6.10;99.90
42743;DHT22;28397;44.552;-0.848;2024-01-07T06:46:44;6.10;99.90
42743;DHT22;28397;44.552;-0.848;2024-01-07T06:49:09;6.00;99.90
42743;DHT22;28397;44.552;-0.848;2024-01-07T06:51:35;6.00;99.90
42743;DHT22;28397;44.552;-0.848;2024-01-07T06:54:01;6.00;99.90
42743;DHT22;28397;44.552;-0.848;2024-01-07T06:56:26;5.90;99.90
42743;DHT22;28397;44.552;-0.848;2024-01-07T06:58:52;5.90;99.90
42743;DHT22;28397;44.552;-0.848;2024-01-07T07:01:20;5.90;99.90
42743;DHT22;28397;44.552;-0.848;2024-01-07T07:03:47;5.90;99.90
42743;DHT22;28397;44.552;-0.848;2024-01-07T07:06:12;5.90;99.90
42743;DHT22;28397;44.552;-0.848;2024-01-07T07:08:38;5.90;99.90
42743;DHT22;28397;44.552;-0.848;2024-01-07T07:11:03;5.80;99.90
42743;DHT22;28397;44.552;-0.848;2024-01-07T07:13:29;5.80;99.90
42743;DHT22;28397;44.552;-0.848;2024-01-07T07:15:55;5.80;99.90
42743;DHT22;28397;44.552;-0.848;2024-01-07T07:18:21;5.80;99.90
42743;DHT22;28397;44.552;-0.848;2024-01-07T07:20:47;5.80;99.90
42743;DHT22;28397;44.552;-0.848;2024-01-07T07:23:12;5.80;99.90
42743;DHT22;28397;44.552;-0.848;2024-01-07T07:25:39;5.80;99.90
42743;DHT22;28397;44.552;-0.848;2024-01-07T07:28:04;5.80;99.90
42743;DHT22;28397;44.552;-0.848;2024-01-07T07:30:30;5.80;99.90
42743;DHT22;28397;44.552;-0.848;2024-01-07T07:32:56;5.70;99.90
42743;DHT22;28397;44.552;-0.848;2024-01-07T07:35:21;5.70;99.90
42743;DHT22;28397;44.552;-0.848;2024-01-07T07:37:47;5.80;99.90
42743;DHT22;28397;44.552;-0.848;2024-01-07T07:40:13;5.70;99.90
42743;DHT22;28397;44.552;-0.848;2024-01-07T07:42:39;5.70;99.90
42743;DHT22;28397;44.552;-0.848;2024-01-07T07:45:05;5.70;99.90
42743;DHT22;28397;44.552;-0.848;2024-01-07T07:47:31;5.70;99.90
42743;DHT22;28397;44.552;-0.848;2024-01-07T07:49:57;5.70;99.90
42743;DHT22;28397;44.552;-0.848;2024-01-07T07:52:22;5.60;99.90
42743;DHT22;28397;44.552;-0.848;2024-01-07T07:54:51;5.70;99.90
42743;DHT22;28397;44.552;-0.848;2024-01-07T07:57:17;5.60;99.90
42743;DHT22;28397;44.552;-0.848;2024-01-07T07:59:45;5.60;99.90
42743;DHT22;28397;44.552;-0.848;2024-01-07T08:02:10;5.70;99.90
42743;DHT22;28397;44.552;-0.848;2024-01-07T08:04:36;6.00;99.90
42743;DHT22;28397;44.552;-0.848;2024-01-07T08:07:02;6.10;99.90
42743;DHT22;28397;44.552;-0.848;2024-01-07T08:09:28;6.20;99.90
42743;DHT22;28397;44.552;-0.848;2024-01-07T08:11:53;6.30;99.90
42743;DHT22;28397;44.552;-0.848;2024-01-07T08:14:19;6.30;99.90
42743;DHT22;28397;44.552;-0.848;2024-01-07T08:16:45;6.50;99.90
42743;DHT22;28397;44.552;-0.848;2024-01-07T08:19:11;6.40;99.90
42743;DHT22;28397;44.552;-0.848;2024-01-07T08:21:36;6.40;99.90
42743;DHT22;28397;44.552;-0.848;2024-01-07T08:24:02;6.30;99.90
42743;DHT22;28397;44.552;-0.848;2024-01-07T08:26:29;6.20;99.90
42743;DHT22;28397;44.552;-0.848;2024-01-07T08:28:55;6.10;99.90
42743;DHT22;28397;44.552;-0.848;2024-01-07T08:31:20;6.10;99.90
42743;DHT22;28397;44.552;-0.848;2024-01-07T08:33:46;6.00;99.90
42743;DHT22;28397;44.552;-0.848;2024-01-07T08:36:12;5.90;99.90
42743;DHT22;28397;44.552;-0.848;2024-01-07T08:38:37;5.90;99.90
42743;DHT22;28397;44.552;-0.848;2024-01-07T08:41:03;5.90;99.90
42743;DHT22;28397;44.552;-0.848;2024-01-07T08:43:29;5.90;99.90
42743;DHT22;28397;44.552;-0.848;2024-01-07T08:45:55;5.90;99.90
42743;DHT22;28397;44.552;-0.848;2024-01-07T08:48:21;6.00;99.90
42743;DHT22;28397;44.552;-0.848;2024-01-07T08:50:46;6.10;99.90
42743;DHT22;28397;44.552;-0.848;2024-01-07T08:53:12;6.10;99.90
42743;DHT22;28397;44.552;-0.848;2024-01-07T08:55:38;6.10;99.90
42743;DHT22;28397;44.552;-0.848;2024-01-07T08:58:05;6.10;99.90
42743;DHT22;28397;44.552;-0.848;2024-01-07T09:00:32;6.10;99.90
42743;DHT22;28397;44.552;-0.848;2024-01-07T09:02:57;6.10;99.90
42743;DHT22;28397;44.552;-0.848;2024-01-07T09:05:23;6.10;99.90
42743;DHT22;28397;44.552;-0.848;2024-01-07T09:07:52;6.20;99.90
42743;DHT22;28397;44.552;-0.848;2024-01-07T09:10:17;6.20;99.90
42743;DHT22;28397;44.552;-0.848;2024-01-07T09:12:44;6.20;99.90
42743;DHT22;28397;44.552;-0.848;2024-01-07T09:15:10;6.20;99.90
42743;DHT22;28397;44.552;-0.848;2024-01-07T09:17:36;6.20;99.90
42743;DHT22;28397;44.552;-0.848;2024-01-07T09:20:04;6.20;99.90
42743;DHT22;28397;44.552;-0.848;2024-01-07T09:22:33;6.20;99.90
42743;DHT22;28397;44.552;-0.848;2024-01-07T09:24:58;6.20;99.90
42743;DHT22;28397;44.552;-0.848;2024-01-07T09:27:24;6.20;99.90
42743;DHT22;28397;44.552;-0.848;2024-01-07T09:29:49;6.30;99.90
42743;DHT22;28397;44.552;-0.848;2024-01-07T09:32:15;6.30;99.90
42743;DHT22;28397;44.552;-0.848;2024-01-07T09:34:41;6.30;99.90
42743;DHT22;28397;44.552;-0.848;2024-01-07T09:37:06;6.30;99.90
42743;DHT22;28397;44.552;-0.848;2024-01-07T09:39:32;6.40;99.90
42743;DHT22;28397;44.552;-0.848;2024-01-07T09:41:58;6.40;99.90
42743;DHT22;28397;44.552;-0.848;2024-01-07T09:44:25;6.40;99.90
42743;DHT22;28397;44.552;-0.848;2024-01-07T09:46:51;6.50;99.90
42743;DHT22;28397;44.552;-0.848;2024-01-07T09:49:17;6.40;99.90
42743;DHT22;28397;44.552;-0.848;2024-01-07T09:51:45;6.50;99.90
42743;DHT22;28397;44.552;-0.848;2024-01-07T09:54:14;6.50;99.90
42743;DHT22;28397;44.552;-0.848;2024-01-07T09:56:50;6.50;99.90
42743;DHT22;28397;44.552;-0.848;2024-01-07T09:59:16;6.50;99.90
42743;DHT22;28397;44.552;-0.848;2024-01-07T10:01:43;6.60;99.90
42743;DHT22;28397;44.552;-0.848;2024-01-07T10:04:09;6.70;99.90
42743;DHT22;28397;44.552;-0.848;2024-01-07T10:06:35;6.60;99.90
42743;DHT22;28397;44.552;-0.848;2024-01-07T10:09:01;6.70;99.90
42743;DHT22;28397;44.552;-0.848;2024-01-07T10:11:26;7.00;99.90
42743;DHT22;28397;44.552;-0.848;2024-01-07T10:13:53;7.10;99.90
42743;DHT22;28397;44.552;-0.848;2024-01-07T10:16:19;7.50;99.90
42743;DHT22;28397;44.552;-0.848;2024-01-07T10:18:45;7.60;99.90
42743;DHT22;28397;44.552;-0.848;2024-01-07T10:21:10;7.60;99.90
42743;DHT22;28397;44.552;-0.848;2024-01-07T10:23:36;7.70;99.90
42743;DHT22;28397;44.552;-0.848;2024-01-07T10:26:02;7.90;99.90
42743;DHT22;28397;44.552;-0.848;2024-01-07T10:28:28;8.00;99.90
42743;DHT22;28397;44.552;-0.848;2024-01-07T10:30:54;7.90;99.90
42743;DHT22;28397;44.552;-0.848;2024-01-07T10:33:20;7.90;99.90
42743;DHT22;28397;44.552;-0.848;2024-01-07T10:35:52;7.80;99.90
42743;DHT22;28397;44.552;-0.848;2024-01-07T10:38:20;7.70;99.90
42743;DHT22;28397;44.552;-0.848;2024-01-07T10:40:47;7.60;99.90
42743;DHT22;28397;44.552;-0.848;2024-01-07T10:43:15;7.60;99.90
42743;DHT22;28397;44.552;-0.848;2024-01-07T10:45:45;7.50;99.90
42743;DHT22;28397;44.552;-0.848;2024-01-07T10:48:15;7.50;99.90
42743;DHT22;28397;44.552;-0.848;2024-01-07T10:50:47;7.60;99.90
42743;DHT22;28397;44.552;-0.848;2024-01-07T10:53:20;7.60;99.90
42743;DHT22;28397;44.552;-0.848;2024-01-07T10:56:05;7.60;99.90
42743;DHT22;28397;44.552;-0.848;2024-01-07T10:58:33;7.60;99.90
42743;DHT22;28397;44.552;-0.848;2024-01-07T11:01:01;7.60;99.90
42743;DHT22;28397;44.552;-0.848;2024-01-07T11:03:51;7.60;99.90
42743;DHT22;28397;44.552;-0.848;2024-01-07T11:08:53;7.60;99.90
42743;DHT22;28397;44.552;-0.848;2024-01-07T11:11:26;7.70;99.90
42743;DHT22;28397;44.552;-0.848;2024-01-07T11:13:52;7.70;99.90
42743;DHT22;28397;44.552;-0.848;2024-01-07T11:19:05;7.80;99.90
42743;DHT22;28397;44.552;-0.848;2024-01-07T11:21:31;7.80;99.90
42743;DHT22;28397;44.552;-0.848;2024-01-07T11:23:56;7.80;99.90
42743;DHT22;28397;44.552;-0.848;2024-01-07T11:26:22;7.80;99.90
42743;DHT22;28397;44.552;-0.848;2024-01-07T11:28:56;7.90;99.90
42743;DHT22;28397;44.552;-0.848;2024-01-07T11:31:42;7.90;99.90
42743;DHT22;28397;44.552;-0.848;2024-01-07T11:34:09;7.90;99.90
42743;DHT22;28397;44.552;-0.848;2024-01-07T11:36:38;7.90;99.90
42743;DHT22;28397;44.552;-0.848;2024-01-07T11:39:05;8.00;99.90
42743;DHT22;28397;44.552;-0.848;2024-01-07T11:41:34;8.10;99.90
42743;DHT22;28397;44.552;-0.848;2024-01-07T11:44:00;8.20;99.90
42743;DHT22;28397;44.552;-0.848;2024-01-07T11:46:30;8.10;99.90
42743;DHT22;28397;44.552;-0.848;2024-01-07T11:48:58;8.10;99.90
42743;DHT22;28397;44.552;-0.848;2024-01-07T11:51:28;8.20;99.90
42743;DHT22;28397;44.552;-0.848;2024-01-07T11:53:59;8.10;99.90
42743;DHT22;28397;44.552;-0.848;2024-01-07T11:56:26;8.10;99.90
42743;DHT22;28397;44.552;-0.848;2024-01-07T11:58:52;8.10;99.90
42743;DHT22;28397;44.552;-0.848;2024-01-07T12:01:18;8.20;99.90
42743;DHT22;28397;44.552;-0.848;2024-01-07T12:03:44;8.20;99.90
42743;DHT22;28397;44.552;-0.848;2024-01-07T12:06:11;8.30;99.90
42743;DHT22;28397;44.552;-0.848;2024-01-07T12:08:43;8.30;99.90
42743;DHT22;28397;44.552;-0.848;2024-01-07T12:11:12;8.50;99.90
42743;DHT22;28397;44.552;-0.848;2024-01-07T12:13:39;8.70;99.90
42743;DHT22;28397;44.552;-0.848;2024-01-07T12:16:05;8.90;99.90
42743;DHT22;28397;44.552;-0.848;2024-01-07T12:18:31;9.00;99.90
42743;DHT22;28397;44.552;-0.848;2024-01-07T12:20:58;9.10;99.90
42743;DHT22;28397;44.552;-0.848;2024-01-07T12:23:25;9.10;99.90
42743;DHT22;28397;44.552;-0.848;2024-01-07T12:25:54;9.10;99.90
42743;DHT22;28397;44.552;-0.848;2024-01-07T12:28:23;9.00;99.90
42743;DHT22;28397;44.552;-0.848;2024-01-07T12:30:49;9.10;99.90
42743;DHT22;28397;44.552;-0.848;2024-01-07T12:33:21;9.00;99.90
42743;DHT22;28397;44.552;-0.848;2024-01-07T12:35:47;9.00;99.90
42743;DHT22;28397;44.552;-0.848;2024-01-07T12:38:13;8.80;99.90
42743;DHT22;28397;44.552;-0.848;2024-01-07T12:40:39;8.70;99.90
42743;DHT22;28397;44.552;-0.848;2024-01-07T12:43:05;8.70;99.90
42743;DHT22;28397;44.552;-0.848;2024-01-07T12:45:32;8.60;99.90
42743;DHT22;28397;44.552;-0.848;2024-01-07T12:47:58;8.60;99.90
42743;DHT22;28397;44.552;-0.848;2024-01-07T12:50:27;8.70;99.90
42743;DHT22;28397;44.552;-0.848;2024-01-07T12:52:55;8.60;99.90
42743;DHT22;28397;44.552;-0.848;2024-01-07T12:55:21;8.60;99.90
42743;DHT22;28397;44.552;-0.848;2024-01-07T12:57:47;8.60;99.90
42743;DHT22;28397;44.552;-0.848;2024-01-07T13:00:13;8.50;99.90
42743;DHT22;28397;44.552;-0.848;2024-01-07T13:02:39;8.50;99.90
42743;DHT22;28397;44.552;-0.848;2024-01-07T13:05:06;8.50;99.90
42743;DHT22;28397;44.552;-0.848;2024-01-07T13:07:32;8.50;99.90
42743;DHT22;28397;44.552;-0.848;2024-01-07T13:09:58;8.50;99.90
42743;DHT22;28397;44.552;-0.848;2024-01-07T13:12:23;8.40;99.90
42743;DHT22;28397;44.552;-0.848;2024-01-07T13:14:49;8.50;99.90
42743;DHT22;28397;44.552;-0.848;2024-01-07T13:17:15;8.50;99.90
42743;DHT22;28397;44.552;-0.848;2024-01-07T13:19:41;8.50;99.90
42743;DHT22;28397;44.552;-0.848;2024-01-07T13:22:07;8.50;99.90
42743;DHT22;28397;44.552;-0.848;2024-01-07T13:24:33;8.50;99.90
42743;DHT22;28397;44.552;-0.848;2024-01-07T13:26:59;8.50;99.90
42743;DHT22;28397;44.552;-0.848;2024-01-07T13:29:24;8.50;99.90
42743;DHT22;28397;44.552;-0.848;2024-01-07T13:31:50;8.50;99.90
42743;DHT22;28397;44.552;-0.848;2024-01-07T13:34:16;8.40;99.90
42743;DHT22;28397;44.552;-0.848;2024-01-07T13:36:43;8.50;99.90
42743;DHT22;28397;44.552;-0.848;2024-01-07T13:39:09;8.50;99.90
42743;DHT22;28397;44.552;-0.848;2024-01-07T13:41:36;8.40;99.90
42743;DHT22;28397;44.552;-0.848;2024-01-07T13:44:02;8.40;99.90
42743;DHT22;28397;44.552;-0.848;2024-01-07T13:46:28;8.40;99.90
42743;DHT22;28397;44.552;-0.848;2024-01-07T13:48:54;8.40;99.90
42743;DHT22;28397;44.552;-0.848;2024-01-07T13:51:20;8.40;99.90
42743;DHT22;28397;44.552;-0.848;2024-01-07T13:53:46;8.40;99.90
42743;DHT22;28397;44.552;-0.848;2024-01-07T13:56:12;8.40;99.90
42743;DHT22;28397;44.552;-0.848;2024-01-07T13:58:38;8.50;99.90
42743;DHT22;28397;44.552;-0.848;2024-01-07T14:01:03;8.50;99.90
42743;DHT22;28397;44.552;-0.848;2024-01-07T14:03:31;8.50;99.90
42743;DHT22;28397;44.552;-0.848;2024-01-07T14:05:58;8.50;99.90
42743;DHT22;28397;44.552;-0.848;2024-01-07T14:08:23;8.90;99.90
42743;DHT22;28397;44.552;-0.848;2024-01-07T14:10:49;9.10;99.90
42743;DHT22;28397;44.552;-0.848;2024-01-07T14:13:15;9.20;99.90
42743;DHT22;28397;44.552;-0.848;2024-01-07T14:15:41;9.40;99.90
42743;DHT22;28397;44.552;-0.848;2024-01-07T14:18:07;9.40;99.90
42743;DHT22;28397;44.552;-0.848;2024-01-07T14:20:34;9.50;99.90
42743;DHT22;28397;44.552;-0.848;2024-01-07T14:23:00;9.40;99.90
42743;DHT22;28397;44.552;-0.848;2024-01-07T14:25:25;9.50;99.90
42743;DHT22;28397;44.552;-0.848;2024-01-07T14:27:51;9.40;99.90
42743;DHT22;28397;44.552;-0.848;2024-01-07T14:30:17;9.20;99.90
42743;DHT22;28397;44.552;-0.848;2024-01-07T14:32:42;9.10;99.90
42743;DHT22;28397;44.552;-0.848;2024-01-07T14:35:11;9.00;99.90
42743;DHT22;28397;44.552;-0.848;2024-01-07T14:37:37;8.90;99.90
42743;DHT22;28397;44.552;-0.848;2024-01-07T14:40:03;8.90;99.90
42743;DHT22;28397;44.552;-0.848;2024-01-07T14:42:30;8.70;99.90
42743;DHT22;28397;44.552;-0.848;2024-01-07T14:44:55;8.70;99.90
42743;DHT22;28397;44.552;-0.848;2024-01-07T14:47:22;8.60;99.90
42743;DHT22;28397;44.552;-0.848;2024-01-07T14:49:47;8.50;99.90
42743;DHT22;28397;44.552;-0.848;2024-01-07T14:52:14;8.40;99.90
42743;DHT22;28397;44.552;-0.848;2024-01-07T14:54:40;8.40;99.90
42743;DHT22;28397;44.552;-0.848;2024-01-07T14:57:05;8.40;99.90
42743;DHT22;28397;44.552;-0.848;2024-01-07T14:59:34;8.40;99.90
42743;DHT22;28397;44.552;-0.848;2024-01-07T15:02:01;8.30;99.90
42743;DHT22;28397;44.552;-0.848;2024-01-07T15:04:27;8.30;99.90
42743;DHT22;28397;44.552;-0.848;2024-01-07T15:06:53;8.30;99.90
42743;DHT22;28397;44.552;-0.848;2024-01-07T15:09:18;8.50;99.90
42743;DHT22;28397;44.552;-0.848;2024-01-07T15:11:46;8.50;99.90
42743;DHT22;28397;44.552;-0.848;2024-01-07T15:14:14;8.40;99.90
42743;DHT22;28397;44.552;-0.848;2024-01-07T15:16:40;8.40;99.90
42743;DHT22;28397;44.552;-0.848;2024-01-07T15:19:05;8.30;99.90
42743;DHT22;28397;44.552;-0.848;2024-01-07T15:21:31;8.30;99.90
42743;DHT22;28397;44.552;-0.848;2024-01-07T15:23:57;8.20;99.90
42743;DHT22;28397;44.552;-0.848;2024-01-07T15:26:22;8.20;99.90
42743;DHT22;28397;44.552;-0.848;2024-01-07T15:28:48;8.20;99.90